sensor_id;sensor_type;location;lat;lon;timestamp;P1;durP1;ratioP1;P2;durP2;ratioP2
19589;SDS011;12231;42.782;23.388;2023-07-31T00:00:57;2.90;;;2.70;;
19589;SDS011;12231;42.782;23.388;2023-07-31T00:03:23;2.60;;;2.40;;
19589;SDS011;12231;42.782;23.388;2023-07-31T00:05:48;2.75;;;2.55;;
19589;SDS011;12231;42.782;23.388;2023-07-31T00:08:14;3.08;;;2.78;;
19589;SDS011;12231;42.782;23.388;2023-07-31T00:10:39;4.53;;;2.60;;
19589;SDS011;12231;42.782;23.388;2023-07-31T00:13:04;3.40;;;2.70;;
19589;SDS011;12231;42.782;23.388;2023-07-31T00:15:30;3.50;;;2.80;;
19589;SDS011;12231;42.782;23.388;2023-07-31T00:17:55;2.90;;;2.60;;
19589;SDS011;12231;42.782;23.388;2023-07-31T00:20:21;3.00;;;2.67;;
19589;SDS011;12231;42.782;23.388;2023-07-31T00:22:47;3.63;;;3.00;;
19589;SDS011;12231;42.782;23.388;2023-07-31T00:25:13;3.10;;;2.80;;
19589;SDS011;12231;42.782;23.388;2023-07-31T00:27:38;3.38;;;2.85;;
19589;SDS011;12231;42.782;23.388;2023-07-31T00:30:04;3.65;;;2.85;;
19589;SDS011;12231;42.782;23.388;2023-07-31T00:32:30;3.92;;;2.50;;
19589;SDS011;12231;42.782;23.388;2023-07-31T00:34:55;3.67;;;3.05;;
19589;SDS011;12231;42.782;23.388;2023-07-31T00:37:21;6.35;;;3.13;;
19589;SDS011;12231;42.782;23.388;2023-07-31T00:39:46;3.88;;;2.90;;
19589;SDS011;12231;42.782;23.388;2023-07-31T00:42:11;3.80;;;3.50;;
19589;SDS011;12231;42.782;23.388;2023-07-31T00:44:37;5.03;;;3.10;;
19589;SDS011;12231;42.782;23.388;2023-07-31T00:47:02;3.53;;;3.22;;
19589;SDS011;12231;42.782;23.388;2023-07-31T00:49:28;3.53;;;3.22;;
19589;SDS011;12231;42.782;23.388;2023-07-31T00:51:56;4.68;;;3.67;;
19589;SDS011;12231;42.782;23.388;2023-07-31T00:54:23;3.33;;;3.03;;
19589;SDS011;12231;42.782;23.388;2023-07-31T00:56:48;4.43;;;3.47;;
19589;SDS011;12231;42.782;23.388;2023-07-31T00:59:17;3.10;;;2.80;;
19589;SDS011;12231;42.782;23.388;2023-07-31T01:01:43;3.60;;;2.92;;
19589;SDS011;12231;42.782;23.388;2023-07-31T01:04:10;3.50;;;3.20;;
19589;SDS011;12231;42.782;23.388;2023-07-31T01:06:44;5.10;;;3.47;;
19589;SDS011;12231;42.782;23.388;2023-07-31T01:12:15;3.63;;;3.10;;
19589;SDS011;12231;42.782;23.388;2023-07-31T01:17:39;3.38;;;3.03;;
19589;SDS011;12231;42.782;23.388;2023-07-31T01:20:23;4.88;;;3.50;;
19589;SDS011;12231;42.782;23.388;2023-07-31T01:26:05;5.55;;;4.05;;
19589;SDS011;12231;42.782;23.388;2023-07-31T01:28:50;9.90;;;7.13;;
19589;SDS011;12231;42.782;23.388;2023-07-31T01:31:26;5.95;;;4.10;;
19589;SDS011;12231;42.782;23.388;2023-07-31T01:33:56;5.13;;;3.78;;
19589;SDS011;12231;42.782;23.388;2023-07-31T01:36:25;4.20;;;3.30;;
19589;SDS011;12231;42.782;23.388;2023-07-31T01:38:50;3.95;;;3.08;;
19589;SDS011;12231;42.782;23.388;2023-07-31T01:41:16;6.20;;;3.75;;
19589;SDS011;12231;42.782;23.388;2023-07-31T01:43:43;3.40;;;3.10;;
19589;SDS011;12231;42.782;23.388;2023-07-31T01:46:08;3.45;;;3.15;;
19589;SDS011;12231;42.782;23.388;2023-07-31T01:48:34;3.25;;;2.95;;
19589;SDS011;12231;42.782;23.388;2023-07-31T01:51:01;3.95;;;3.13;;
19589;SDS011;12231;42.782;23.388;2023-07-31T01:53:28;4.20;;;3.38;;
19589;SDS011;12231;42.782;23.388;2023-07-31T01:55:54;3.42;;;2.90;;
19589;SDS011;12231;42.782;23.388;2023-07-31T01:58:19;3.63;;;2.72;;
19589;SDS011;12231;42.782;23.388;2023-07-31T02:00:44;2.78;;;2.58;;
19589;SDS011;12231;42.782;23.388;2023-07-31T02:03:11;3.53;;;2.83;;
19589;SDS011;12231;42.782;23.388;2023-07-31T02:05:36;3.20;;;2.95;;
19589;SDS011;12231;42.782;23.388;2023-07-31T02:08:09;5.63;;;2.95;;
19589;SDS011;12231;42.782;23.388;2023-07-31T02:10:34;2.92;;;2.70;;
19589;SDS011;12231;42.782;23.388;2023-07-31T02:13:00;3.83;;;3.15;;
19589;SDS011;12231;42.782;23.388;2023-07-31T02:15:25;3.00;;;2.80;;
19589;SDS011;12231;42.782;23.388;2023-07-31T02:17:50;3.45;;;3.15;;
19589;SDS011;12231;42.782;23.388;2023-07-31T02:20:16;3.53;;;3.25;;
19589;SDS011;12231;42.782;23.388;2023-07-31T02:22:41;3.15;;;2.85;;
19589;SDS011;12231;42.782;23.388;2023-07-31T02:25:07;4.00;;;2.70;;
19589;SDS011;12231;42.782;23.388;2023-07-31T02:27:33;3.20;;;2.95;;
19589;SDS011;12231;42.782;23.388;2023-07-31T02:29:58;5.75;;;3.00;;
19589;SDS011;12231;42.782;23.388;2023-07-31T02:32:24;3.80;;;3.40;;
19589;SDS011;12231;42.782;23.388;2023-07-31T02:34:49;5.00;;;3.70;;
19589;SDS011;12231;42.782;23.388;2023-07-31T02:37:15;5.60;;;4.95;;
19589;SDS011;12231;42.782;23.388;2023-07-31T02:39:40;6.53;;;3.70;;
19589;SDS011;12231;42.782;23.388;2023-07-31T02:42:06;3.50;;;3.20;;
19589;SDS011;12231;42.782;23.388;2023-07-31T02:44:31;3.70;;;3.25;;
19589;SDS011;12231;42.782;23.388;2023-07-31T02:46:56;3.78;;;3.38;;
19589;SDS011;12231;42.782;23.388;2023-07-31T02:49:22;3.47;;;3.17;;
19589;SDS011;12231;42.782;23.388;2023-07-31T02:51:47;4.22;;;3.58;;
19589;SDS011;12231;42.782;23.388;2023-07-31T02:54:13;3.40;;;3.10;;
19589;SDS011;12231;42.782;23.388;2023-07-31T02:56:38;2.88;;;2.67;;
19589;SDS011;12231;42.782;23.388;2023-07-31T02:59:03;3.40;;;3.10;;
19589;SDS011;12231;42.782;23.388;2023-07-31T03:01:29;3.85;;;2.97;;
19589;SDS011;12231;42.782;23.388;2023-07-31T03:03:54;5.15;;;4.43;;
19589;SDS011;12231;42.782;23.388;2023-07-31T03:06:20;5.25;;;3.47;;
19589;SDS011;12231;42.782;23.388;2023-07-31T03:08:45;4.05;;;3.63;;
19589;SDS011;12231;42.782;23.388;2023-07-31T03:11:11;4.78;;;4.35;;
19589;SDS011;12231;42.782;23.388;2023-07-31T03:13:36;3.80;;;3.50;;
19589;SDS011;12231;42.782;23.388;2023-07-31T03:16:02;4.53;;;3.88;;
19589;SDS011;12231;42.782;23.388;2023-07-31T03:18:27;4.45;;;4.05;;
19589;SDS011;12231;42.782;23.388;2023-07-31T03:20:52;5.65;;;4.68;;
19589;SDS011;12231;42.782;23.388;2023-07-31T03:23:18;5.13;;;4.63;;
19589;SDS011;12231;42.782;23.388;2023-07-31T03:25:59;4.18;;;3.63;;
19589;SDS011;12231;42.782;23.388;2023-07-31T03:28:26;7.70;;;4.43;;
19589;SDS011;12231;42.782;23.388;2023-07-31T03:30:51;4.47;;;4.07;;
19589;SDS011;12231;42.782;23.388;2023-07-31T03:33:17;4.55;;;3.75;;
19589;SDS011;12231;42.782;23.388;2023-07-31T03:35:43;5.05;;;4.05;;
19589;SDS011;12231;42.782;23.388;2023-07-31T03:38:08;5.10;;;4.60;;
19589;SDS011;12231;42.782;23.388;2023-07-31T03:40:33;5.07;;;3.75;;
19589;SDS011;12231;42.782;23.388;2023-07-31T03:42:59;4.75;;;3.95;;
19589;SDS011;12231;42.782;23.388;2023-07-31T03:45:24;7.53;;;4.32;;
19589;SDS011;12231;42.782;23.388;2023-07-31T03:47:50;4.57;;;4.03;;
19589;SDS011;12231;42.782;23.388;2023-07-31T03:50:15;5.88;;;4.07;;
19589;SDS011;12231;42.782;23.388;2023-07-31T03:52:41;4.35;;;3.75;;
19589;SDS011;12231;42.782;23.388;2023-07-31T03:55:06;4.90;;;4.40;;
19589;SDS011;12231;42.782;23.388;2023-07-31T03:57:32;6.13;;;3.65;;
19589;SDS011;12231;42.782;23.388;2023-07-31T03:59:57;4.50;;;4.10;;
19589;SDS011;12231;42.782;23.388;2023-07-31T04:02:23;4.57;;;3.92;;
19589;SDS011;12231;42.782;23.388;2023-07-31T04:04:49;4.10;;;3.70;;
19589;SDS011;12231;42.782;23.388;2023-07-31T04:07:14;4.30;;;3.88;;
19589;SDS011;12231;42.782;23.388;2023-07-31T04:09:39;4.57;;;4.15;;
19589;SDS011;12231;42.782;23.388;2023-07-31T04:12:05;3.63;;;3.33;;
19589;SDS011;12231;42.782;23.388;2023-07-31T04:14:31;4.20;;;3.80;;
19589;SDS011;12231;42.782;23.388;2023-07-31T04:16:56;4.03;;;3.70;;
19589;SDS011;12231;42.782;23.388;2023-07-31T04:19:21;4.38;;;3.97;;
19589;SDS011;12231;42.782;23.388;2023-07-31T04:21:47;5.45;;;4.65;;
19589;SDS011;12231;42.782;23.388;2023-07-31T04:24:12;5.07;;;4.57;;
19589;SDS011;12231;42.782;23.388;2023-07-31T04:26:38;4.00;;;3.55;;
19589;SDS011;12231;42.782;23.388;2023-07-31T04:29:03;6.07;;;4.38;;
19589;SDS011;12231;42.782;23.388;2023-07-31T04:31:29;9.45;;;5.07;;
19589;SDS011;12231;42.782;23.388;2023-07-31T04:33:54;5.00;;;4.50;;
19589;SDS011;12231;42.782;23.388;2023-07-31T04:36:19;5.03;;;4.63;;
19589;SDS011;12231;42.782;23.388;2023-07-31T04:38:45;6.75;;;5.75;;
19589;SDS011;12231;42.782;23.388;2023-07-31T04:41:10;5.03;;;4.55;;
19589;SDS011;12231;42.782;23.388;2023-07-31T04:43:36;9.02;;;7.05;;
19589;SDS011;12231;42.782;23.388;2023-07-31T04:46:04;9.10;;;7.45;;
19589;SDS011;12231;42.782;23.388;2023-07-31T04:48:30;7.30;;;5.97;;
19589;SDS011;12231;42.782;23.388;2023-07-31T04:50:55;12.95;;;8.55;;
19589;SDS011;12231;42.782;23.388;2023-07-31T04:53:21;9.95;;;8.90;;
19589;SDS011;12231;42.782;23.388;2023-07-31T04:55:46;11.07;;;9.65;;
19589;SDS011;12231;42.782;23.388;2023-07-31T04:58:11;11.98;;;9.50;;
19589;SDS011;12231;42.782;23.388;2023-07-31T05:00:37;12.55;;;10.07;;
19589;SDS011;12231;42.782;23.388;2023-07-31T05:03:02;15.77;;;12.43;;
19589;SDS011;12231;42.782;23.388;2023-07-31T05:05:28;16.25;;;12.35;;
19589;SDS011;12231;42.782;23.388;2023-07-31T05:07:53;16.95;;;13.05;;
19589;SDS011;12231;42.782;23.388;2023-07-31T05:10:18;17.95;;;13.13;;
19589;SDS011;12231;42.782;23.388;2023-07-31T05:12:44;16.60;;;12.38;;
19589;SDS011;12231;42.782;23.388;2023-07-31T05:15:09;17.05;;;12.40;;
19589;SDS011;12231;42.782;23.388;2023-07-31T05:17:35;13.35;;;10.90;;
19589;SDS011;12231;42.782;23.388;2023-07-31T05:20:00;15.57;;;12.10;;
19589;SDS011;12231;42.782;23.388;2023-07-31T05:22:26;14.85;;;11.93;;
19589;SDS011;12231;42.782;23.388;2023-07-31T05:24:51;15.98;;;12.77;;
19589;SDS011;12231;42.782;23.388;2023-07-31T05:27:18;15.02;;;11.77;;
19589;SDS011;12231;42.782;23.388;2023-07-31T05:29:44;18.35;;;12.18;;
19589;SDS011;12231;42.782;23.388;2023-07-31T05:32:10;14.23;;;11.15;;
19589;SDS011;12231;42.782;23.388;2023-07-31T05:34:35;17.40;;;11.85;;
19589;SDS011;12231;42.782;23.388;2023-07-31T05:37:01;11.95;;;10.65;;
19589;SDS011;12231;42.782;23.388;2023-07-31T05:39:26;11.88;;;10.32;;
19589;SDS011;12231;42.782;23.388;2023-07-31T05:41:52;12.93;;;10.07;;
19589;SDS011;12231;42.782;23.388;2023-07-31T05:44:17;10.88;;;9.30;;
19589;SDS011;12231;42.782;23.388;2023-07-31T05:46:42;10.60;;;9.50;;
19589;SDS011;12231;42.782;23.388;2023-07-31T05:49:08;11.80;;;9.57;;
19589;SDS011;12231;42.782;23.388;2023-07-31T05:51:33;10.55;;;8.73;;
19589;SDS011;12231;42.782;23.388;2023-07-31T05:53:59;9.55;;;7.90;;
19589;SDS011;12231;42.782;23.388;2023-07-31T05:56:24;10.45;;;8.52;;
19589;SDS011;12231;42.782;23.388;2023-07-31T05:58:49;8.98;;;7.93;;
19589;SDS011;12231;42.782;23.388;2023-07-31T06:01:16;7.93;;;7.20;;
19589;SDS011;12231;42.782;23.388;2023-07-31T06:03:42;8.77;;;7.32;;
19589;SDS011;12231;42.782;23.388;2023-07-31T06:06:07;8.23;;;7.45;;
19589;SDS011;12231;42.782;23.388;2023-07-31T06:08:33;7.85;;;7.13;;
19589;SDS011;12231;42.782;23.388;2023-07-31T06:10:58;8.30;;;7.22;;
19589;SDS011;12231;42.782;23.388;2023-07-31T06:13:24;7.70;;;7.00;;
19589;SDS011;12231;42.782;23.388;2023-07-31T06:15:49;8.32;;;7.53;;
19589;SDS011;12231;42.782;23.388;2023-07-31T06:18:15;7.18;;;6.28;;
19589;SDS011;12231;42.782;23.388;2023-07-31T06:20:41;8.30;;;6.95;;
19589;SDS011;12231;42.782;23.388;2023-07-31T06:23:07;8.90;;;7.07;;
19589;SDS011;12231;42.782;23.388;2023-07-31T06:25:33;9.27;;;6.78;;
19589;SDS011;12231;42.782;23.388;2023-07-31T06:27:58;7.15;;;6.45;;
19589;SDS011;12231;42.782;23.388;2023-07-31T06:30:23;7.75;;;6.95;;
19589;SDS011;12231;42.782;23.388;2023-07-31T06:32:49;7.75;;;6.95;;
19589;SDS011;12231;42.782;23.388;2023-07-31T06:35:14;6.75;;;6.15;;
19589;SDS011;12231;42.782;23.388;2023-07-31T06:37:40;7.43;;;6.63;;
19589;SDS011;12231;42.782;23.388;2023-07-31T06:40:08;6.70;;;6.10;;
19589;SDS011;12231;42.782;23.388;2023-07-31T06:42:34;6.55;;;5.85;;
19589;SDS011;12231;42.782;23.388;2023-07-31T06:45:00;6.88;;;5.32;;
19589;SDS011;12231;42.782;23.388;2023-07-31T06:47:26;5.25;;;4.75;;
19589;SDS011;12231;42.782;23.388;2023-07-31T06:49:51;5.20;;;4.43;;
19589;SDS011;12231;42.782;23.388;2023-07-31T06:52:17;7.80;;;4.70;;
19589;SDS011;12231;42.782;23.388;2023-07-31T06:54:42;4.85;;;4.35;;
19589;SDS011;12231;42.782;23.388;2023-07-31T06:57:08;4.97;;;4.47;;
19589;SDS011;12231;42.782;23.388;2023-07-31T06:59:33;5.63;;;5.13;;
19589;SDS011;12231;42.782;23.388;2023-07-31T07:01:58;5.60;;;5.10;;
19589;SDS011;12231;42.782;23.388;2023-07-31T07:04:24;6.70;;;5.88;;
19589;SDS011;12231;42.782;23.388;2023-07-31T07:06:49;6.55;;;5.82;;
19589;SDS011;12231;42.782;23.388;2023-07-31T07:09:15;5.50;;;5.00;;
19589;SDS011;12231;42.782;23.388;2023-07-31T07:11:40;5.95;;;4.57;;
19589;SDS011;12231;42.782;23.388;2023-07-31T07:14:06;5.15;;;4.75;;
19589;SDS011;12231;42.782;23.388;2023-07-31T07:16:31;4.93;;;4.35;;
19589;SDS011;12231;42.782;23.388;2023-07-31T07:18:56;5.85;;;4.63;;
19589;SDS011;12231;42.782;23.388;2023-07-31T07:21:22;6.72;;;4.72;;
19589;SDS011;12231;42.782;23.388;2023-07-31T07:23:48;5.60;;;5.10;;
19589;SDS011;12231;42.782;23.388;2023-07-31T07:26:13;5.13;;;4.63;;
19589;SDS011;12231;42.782;23.388;2023-07-31T07:28:38;4.85;;;4.45;;
19589;SDS011;12231;42.782;23.388;2023-07-31T07:31:04;4.03;;;3.72;;
19589;SDS011;12231;42.782;23.388;2023-07-31T07:33:30;4.05;;;3.75;;
19589;SDS011;12231;42.782;23.388;2023-07-31T07:35:55;4.10;;;3.80;;
19589;SDS011;12231;42.782;23.388;2023-07-31T07:38:24;4.35;;;4.05;;
19589;SDS011;12231;42.782;23.388;2023-07-31T07:40:50;4.88;;;4.22;;
19589;SDS011;12231;42.782;23.388;2023-07-31T07:43:18;4.15;;;3.75;;
19589;SDS011;12231;42.782;23.388;2023-07-31T07:45:43;5.88;;;4.20;;
19589;SDS011;12231;42.782;23.388;2023-07-31T07:48:08;3.88;;;3.58;;
19589;SDS011;12231;42.782;23.388;2023-07-31T07:50:34;4.53;;;4.13;;
19589;SDS011;12231;42.782;23.388;2023-07-31T07:52:59;6.75;;;5.97;;
19589;SDS011;12231;42.782;23.388;2023-07-31T07:55:25;4.60;;;4.20;;
19589;SDS011;12231;42.782;23.388;2023-07-31T07:57:50;4.13;;;3.83;;
19589;SDS011;12231;42.782;23.388;2023-07-31T08:00:15;4.05;;;3.75;;
19589;SDS011;12231;42.782;23.388;2023-07-31T08:02:42;4.47;;;4.07;;
19589;SDS011;12231;42.782;23.388;2023-07-31T08:05:08;6.43;;;5.88;;
19589;SDS011;12231;42.782;23.388;2023-07-31T08:07:33;3.88;;;3.55;;
19589;SDS011;12231;42.782;23.388;2023-07-31T08:09:59;4.05;;;3.70;;
19589;SDS011;12231;42.782;23.388;2023-07-31T08:12:24;4.20;;;3.80;;
19589;SDS011;12231;42.782;23.388;2023-07-31T08:14:50;4.20;;;3.38;;
19589;SDS011;12231;42.782;23.388;2023-07-31T08:17:15;3.58;;;3.28;;
19589;SDS011;12231;42.782;23.388;2023-07-31T08:19:40;4.40;;;4.00;;
19589;SDS011;12231;42.782;23.388;2023-07-31T08:22:06;7.85;;;4.63;;
19589;SDS011;12231;42.782;23.388;2023-07-31T08:24:31;4.13;;;3.72;;
19589;SDS011;12231;42.782;23.388;2023-07-31T08:26:57;3.90;;;3.47;;
19589;SDS011;12231;42.782;23.388;2023-07-31T08:29:22;3.17;;;2.95;;
19589;SDS011;12231;42.782;23.388;2023-07-31T08:31:48;3.45;;;3.15;;
19589;SDS011;12231;42.782;23.388;2023-07-31T08:34:14;3.33;;;2.97;;
19589;SDS011;12231;42.782;23.388;2023-07-31T08:36:39;3.63;;;3.17;;
19589;SDS011;12231;42.782;23.388;2023-07-31T08:39:05;3.20;;;3.00;;
19589;SDS011;12231;42.782;23.388;2023-07-31T08:41:31;2.90;;;2.70;;
19589;SDS011;12231;42.782;23.388;2023-07-31T08:43:56;3.25;;;3.03;;
19589;SDS011;12231;42.782;23.388;2023-07-31T08:46:22;4.18;;;3.00;;
19589;SDS011;12231;42.782;23.388;2023-07-31T08:48:48;3.28;;;3.05;;
19589;SDS011;12231;42.782;23.388;2023-07-31T08:51:15;5.00;;;3.78;;
19589;SDS011;12231;42.782;23.388;2023-07-31T08:53:41;3.63;;;3.33;;
19589;SDS011;12231;42.782;23.388;2023-07-31T08:56:06;3.38;;;3.08;;
19589;SDS011;12231;42.782;23.388;2023-07-31T08:58:32;3.10;;;2.90;;
19589;SDS011;12231;42.782;23.388;2023-07-31T09:01:01;2.83;;;2.60;;
19589;SDS011;12231;42.782;23.388;2023-07-31T09:03:28;3.00;;;2.80;;
19589;SDS011;12231;42.782;23.388;2023-07-31T09:05:58;3.25;;;2.95;;
19589;SDS011;12231;42.782;23.388;2023-07-31T09:08:25;3.67;;;2.88;;
19589;SDS011;12231;42.782;23.388;2023-07-31T09:10:58;2.85;;;2.50;;
19589;SDS011;12231;42.782;23.388;2023-07-31T09:13:25;3.13;;;2.83;;
19589;SDS011;12231;42.782;23.388;2023-07-31T09:15:53;2.78;;;2.58;;
19589;SDS011;12231;42.782;23.388;2023-07-31T09:18:18;3.17;;;2.60;;
19589;SDS011;12231;42.782;23.388;2023-07-31T09:20:51;3.63;;;2.80;;
19589;SDS011;12231;42.782;23.388;2023-07-31T09:23:39;2.92;;;2.63;;
19589;SDS011;12231;42.782;23.388;2023-07-31T09:26:09;2.75;;;2.55;;
19589;SDS011;12231;42.782;23.388;2023-07-31T09:28:34;2.75;;;2.55;;
19589;SDS011;12231;42.782;23.388;2023-07-31T09:30:59;5.60;;;2.63;;
19589;SDS011;12231;42.782;23.388;2023-07-31T09:33:25;2.45;;;2.30;;
19589;SDS011;12231;42.782;23.388;2023-07-31T09:35:50;2.80;;;2.60;;
19589;SDS011;12231;42.782;23.388;2023-07-31T09:38:16;2.65;;;2.45;;
19589;SDS011;12231;42.782;23.388;2023-07-31T09:40:42;3.20;;;2.90;;
19589;SDS011;12231;42.782;23.388;2023-07-31T09:43:13;3.00;;;2.72;;
19589;SDS011;12231;42.782;23.388;2023-07-31T09:45:42;2.38;;;2.17;;
19589;SDS011;12231;42.782;23.388;2023-07-31T09:48:09;2.15;;;2.00;;
19589;SDS011;12231;42.782;23.388;2023-07-31T09:50:42;2.35;;;2.10;;
19589;SDS011;12231;42.782;23.388;2023-07-31T09:53:09;2.33;;;1.98;;
19589;SDS011;12231;42.782;23.388;2023-07-31T09:55:35;2.03;;;1.92;;
19589;SDS011;12231;42.782;23.388;2023-07-31T09:58:05;2.17;;;1.90;;
19589;SDS011;12231;42.782;23.388;2023-07-31T10:00:32;2.35;;;2.15;;
19589;SDS011;12231;42.782;23.388;2023-07-31T10:03:01;2.33;;;2.13;;
19589;SDS011;12231;42.782;23.388;2023-07-31T10:05:31;2.08;;;1.98;;
19589;SDS011;12231;42.782;23.388;2023-07-31T10:07:59;2.03;;;1.92;;
19589;SDS011;12231;42.782;23.388;2023-07-31T10:10:25;2.60;;;2.40;;
19589;SDS011;12231;42.782;23.388;2023-07-31T10:12:52;2.50;;;2.30;;
19589;SDS011;12231;42.782;23.388;2023-07-31T10:15:19;2.08;;;1.98;;
19589;SDS011;12231;42.782;23.388;2023-07-31T10:17:48;2.00;;;1.80;;
19589;SDS011;12231;42.782;23.388;2023-07-31T10:20:14;2.25;;;2.00;;
19589;SDS011;12231;42.782;23.388;2023-07-31T10:22:44;2.25;;;2.08;;
19589;SDS011;12231;42.782;23.388;2023-07-31T10:25:11;1.60;;;1.50;;
19589;SDS011;12231;42.782;23.388;2023-07-31T10:27:38;2.20;;;1.90;;
19589;SDS011;12231;42.782;23.388;2023-07-31T10:30:04;2.20;;;2.00;;
19589;SDS011;12231;42.782;23.388;2023-07-31T10:32:33;2.60;;;2.00;;
19589;SDS011;12231;42.782;23.388;2023-07-31T10:35:00;3.15;;;2.08;;
19589;SDS011;12231;42.782;23.388;2023-07-31T10:37:29;2.47;;;2.28;;
19589;SDS011;12231;42.782;23.388;2023-07-31T10:40:03;2.40;;;2.15;;
19589;SDS011;12231;42.782;23.388;2023-07-31T10:42:37;1.80;;;1.70;;
19589;SDS011;12231;42.782;23.388;2023-07-31T10:45:06;2.83;;;2.00;;
19589;SDS011;12231;42.782;23.388;2023-07-31T10:47:38;1.92;;;1.83;;
19589;SDS011;12231;42.782;23.388;2023-07-31T10:52:44;2.40;;;2.20;;
19589;SDS011;12231;42.782;23.388;2023-07-31T10:55:32;2.42;;;2.22;;
19589;SDS011;12231;42.782;23.388;2023-07-31T10:58:07;2.17;;;1.98;;
19589;SDS011;12231;42.782;23.388;2023-07-31T11:00:36;2.25;;;2.08;;
19589;SDS011;12231;42.782;23.388;2023-07-31T11:05:41;2.03;;;1.92;;
19589;SDS011;12231;42.782;23.388;2023-07-31T11:11:04;2.63;;;2.15;;
19589;SDS011;12231;42.782;23.388;2023-07-31T11:13:32;6.15;;;5.25;;
19589;SDS011;12231;42.782;23.388;2023-07-31T11:15:59;3.97;;;2.65;;
19589;SDS011;12231;42.782;23.388;2023-07-31T11:18:28;2.55;;;1.88;;
19589;SDS011;12231;42.782;23.388;2023-07-31T11:20:53;2.92;;;2.20;;
19589;SDS011;12231;42.782;23.388;2023-07-31T11:23:19;2.90;;;2.28;;
19589;SDS011;12231;42.782;23.388;2023-07-31T11:25:46;2.10;;;2.00;;
19589;SDS011;12231;42.782;23.388;2023-07-31T11:28:15;2.00;;;1.90;;
19589;SDS011;12231;42.782;23.388;2023-07-31T11:30:46;2.13;;;1.95;;
19589;SDS011;12231;42.782;23.388;2023-07-31T11:33:12;2.03;;;1.92;;
19589;SDS011;12231;42.782;23.388;2023-07-31T11:35:42;2.40;;;2.20;;
19589;SDS011;12231;42.782;23.388;2023-07-31T11:38:11;2.92;;;2.03;;
19589;SDS011;12231;42.782;23.388;2023-07-31T11:41:01;1.90;;;1.70;;
19589;SDS011;12231;42.782;23.388;2023-07-31T11:43:28;2.95;;;2.20;;
19589;SDS011;12231;42.782;23.388;2023-07-31T11:45:55;1.65;;;1.55;;
19589;SDS011;12231;42.782;23.388;2023-07-31T11:48:22;5.18;;;2.75;;
19589;SDS011;12231;42.782;23.388;2023-07-31T11:51:03;2.55;;;2.35;;
19589;SDS011;12231;42.782;23.388;2023-07-31T11:53:31;2.30;;;1.75;;
19589;SDS011;12231;42.782;23.388;2023-07-31T11:55:59;2.78;;;2.17;;
19589;SDS011;12231;42.782;23.388;2023-07-31T11:58:26;2.75;;;2.10;;
19589;SDS011;12231;42.782;23.388;2023-07-31T12:00:54;2.15;;;2.00;;
19589;SDS011;12231;42.782;23.388;2023-07-31T12:03:20;1.98;;;1.75;;
19589;SDS011;12231;42.782;23.388;2023-07-31T12:05:47;2.15;;;1.95;;
19589;SDS011;12231;42.782;23.388;2023-07-31T12:08:13;2.92;;;2.30;;
19589;SDS011;12231;42.782;23.388;2023-07-31T12:10:39;3.10;;;2.33;;
19589;SDS011;12231;42.782;23.388;2023-07-31T12:13:08;3.47;;;2.45;;
19589;SDS011;12231;42.782;23.388;2023-07-31T12:15:41;3.30;;;3.03;;
19589;SDS011;12231;42.782;23.388;2023-07-31T12:18:09;4.18;;;3.88;;
19589;SDS011;12231;42.782;23.388;2023-07-31T12:20:39;4.70;;;4.30;;
19589;SDS011;12231;42.782;23.388;2023-07-31T12:23:06;5.82;;;5.32;;
19589;SDS011;12231;42.782;23.388;2023-07-31T12:25:37;4.80;;;4.40;;
19589;SDS011;12231;42.782;23.388;2023-07-31T12:28:06;3.70;;;3.40;;
19589;SDS011;12231;42.782;23.388;2023-07-31T12:30:36;3.00;;;2.70;;
19589;SDS011;12231;42.782;23.388;2023-07-31T12:33:06;2.20;;;2.00;;
19589;SDS011;12231;42.782;23.388;2023-07-31T12:35:43;1.80;;;1.70;;
19589;SDS011;12231;42.782;23.388;2023-07-31T12:38:11;1.92;;;1.80;;
19589;SDS011;12231;42.782;23.388;2023-07-31T12:40:38;2.05;;;1.70;;
19589;SDS011;12231;42.782;23.388;2023-07-31T12:43:04;2.03;;;1.92;;
19589;SDS011;12231;42.782;23.388;2023-07-31T12:45:30;1.92;;;1.83;;
19589;SDS011;12231;42.782;23.388;2023-07-31T12:47:56;1.98;;;1.88;;
19589;SDS011;12231;42.782;23.388;2023-07-31T12:50:22;2.20;;;2.00;;
19589;SDS011;12231;42.782;23.388;2023-07-31T12:52:48;2.80;;;2.60;;
19589;SDS011;12231;42.782;23.388;2023-07-31T12:55:17;1.50;;;1.40;;
19589;SDS011;12231;42.782;23.388;2023-07-31T12:57:43;2.72;;;2.33;;
19589;SDS011;12231;42.782;23.388;2023-07-31T13:00:09;1.98;;;1.85;;
19589;SDS011;12231;42.782;23.388;2023-07-31T13:02:36;1.98;;;1.88;;
19589;SDS011;12231;42.782;23.388;2023-07-31T13:05:01;2.22;;;2.03;;
19589;SDS011;12231;42.782;23.388;2023-07-31T13:07:27;3.33;;;2.05;;
19589;SDS011;12231;42.782;23.388;2023-07-31T13:09:52;2.55;;;2.08;;
19589;SDS011;12231;42.782;23.388;2023-07-31T13:12:18;2.67;;;2.10;;
19589;SDS011;12231;42.782;23.388;2023-07-31T13:14:43;7.22;;;2.17;;
19589;SDS011;12231;42.782;23.388;2023-07-31T13:17:09;3.08;;;2.78;;
19589;SDS011;12231;42.782;23.388;2023-07-31T13:19:34;2.92;;;2.63;;
19589;SDS011;12231;42.782;23.388;2023-07-31T13:21:59;3.63;;;3.03;;
19589;SDS011;12231;42.782;23.388;2023-07-31T13:24:25;3.50;;;3.17;;
19589;SDS011;12231;42.782;23.388;2023-07-31T13:26:50;3.63;;;3.33;;
19589;SDS011;12231;42.782;23.388;2023-07-31T13:29:16;3.53;;;3.22;;
19589;SDS011;12231;42.782;23.388;2023-07-31T13:31:41;3.72;;;3.22;;
19589;SDS011;12231;42.782;23.388;2023-07-31T13:34:06;3.67;;;3.38;;
19589;SDS011;12231;42.782;23.388;2023-07-31T13:36:32;3.70;;;3.40;;
19589;SDS011;12231;42.782;23.388;2023-07-31T13:38:59;3.50;;;3.20;;
19589;SDS011;12231;42.782;23.388;2023-07-31T13:41:24;3.72;;;3.42;;
19589;SDS011;12231;42.782;23.388;2023-07-31T13:43:50;3.20;;;3.00;;
19589;SDS011;12231;42.782;23.388;2023-07-31T13:46:15;5.00;;;3.55;;
19589;SDS011;12231;42.782;23.388;2023-07-31T13:48:41;3.60;;;3.35;;
19589;SDS011;12231;42.782;23.388;2023-07-31T13:51:06;3.42;;;3.13;;
19589;SDS011;12231;42.782;23.388;2023-07-31T13:53:31;4.20;;;3.80;;
19589;SDS011;12231;42.782;23.388;2023-07-31T13:55:57;3.55;;;3.25;;
19589;SDS011;12231;42.782;23.388;2023-07-31T13:58:22;3.78;;;3.40;;
19589;SDS011;12231;42.782;23.388;2023-07-31T14:00:48;3.63;;;3.30;;
19589;SDS011;12231;42.782;23.388;2023-07-31T14:03:13;4.07;;;3.78;;
19589;SDS011;12231;42.782;23.388;2023-07-31T14:05:39;3.83;;;3.45;;
19589;SDS011;12231;42.782;23.388;2023-07-31T14:08:04;3.47;;;3.17;;
19589;SDS011;12231;42.782;23.388;2023-07-31T14:10:30;3.70;;;3.40;;
19589;SDS011;12231;42.782;23.388;2023-07-31T14:12:55;4.18;;;3.40;;
19589;SDS011;12231;42.782;23.388;2023-07-31T14:15:20;3.90;;;3.60;;
19589;SDS011;12231;42.782;23.388;2023-07-31T14:17:46;4.93;;;3.83;;
19589;SDS011;12231;42.782;23.388;2023-07-31T14:20:11;7.88;;;4.43;;
19589;SDS011;12231;42.782;23.388;2023-07-31T14:22:37;3.72;;;2.97;;
19589;SDS011;12231;42.782;23.388;2023-07-31T14:25:03;9.73;;;4.97;;
19589;SDS011;12231;42.782;23.388;2023-07-31T14:27:29;5.95;;;3.40;;
19589;SDS011;12231;42.782;23.388;2023-07-31T14:29:54;6.22;;;4.13;;
19589;SDS011;12231;42.782;23.388;2023-07-31T14:32:20;5.72;;;3.78;;
19589;SDS011;12231;42.782;23.388;2023-07-31T14:34:48;3.25;;;2.95;;
19589;SDS011;12231;42.782;23.388;2023-07-31T14:37:13;3.47;;;2.95;;
19589;SDS011;12231;42.782;23.388;2023-07-31T14:39:39;2.72;;;2.53;;
19589;SDS011;12231;42.782;23.388;2023-07-31T14:42:04;3.88;;;2.97;;
19589;SDS011;12231;42.782;23.388;2023-07-31T14:44:30;2.80;;;2.60;;
19589;SDS011;12231;42.782;23.388;2023-07-31T14:46:55;2.42;;;2.22;;